createdAt,value
2017-11-20T00:00:00.963Z,92.33
2017-11-20T00:01:00.979Z,92.42
2017-11-20T00:02:00.998Z,92.52
2017-11-20T00:03:01.014Z,92.99
2017-11-20T00:04:01.031Z,92.42
2017-11-20T00:05:01.047Z,92.80
2017-11-20T00:06:01.066Z,92.71
2017-11-20T00:07:01.084Z,92.71
2017-11-20T00:08:01.106Z,92.90
2017-11-20T00:09:01.115Z,92.80
2017-11-20T00:10:01.135Z,92.80
2017-11-20T00:11:01.156Z,92.85
2017-11-20T00:12:01.169Z,93.32
2017-11-20T00:13:01.184Z,92.99
2017-11-20T00:14:01.207Z,93.08
2017-11-20T00:15:01.218Z,92.99
2017-11-20T00:16:01.236Z,93.08
2017-11-20T00:17:01.252Z,92.61
2017-11-20T00:18:01.275Z,92.71
2017-11-20T00:19:01.295Z,92.99
2017-11-20T00:20:01.305Z,92.52
2017-11-20T00:21:01.322Z,92.61
2017-11-20T00:22:01.339Z,92.61
2017-11-20T00:23:01.357Z,93.18
2017-11-20T00:24:01.372Z,92.61
2017-11-20T00:25:01.390Z,92.71
2017-11-20T00:26:01.414Z,92.99
2017-11-20T00:27:01.425Z,93.27
2017-11-20T00:28:01.441Z,93.08
2017-11-20T00:29:01.456Z,92.90
2017-11-20T00:30:01.476Z,93.18
2017-11-20T00:31:01.493Z,92.90
2017-11-20T00:32:01.510Z,93.46
2017-11-20T00:33:01.533Z,93.56
2017-11-20T00:34:01.544Z,93.65
2017-11-20T00:35:01.559Z,93.56
2017-11-20T00:36:01.578Z,93.51
2017-11-20T00:37:01.594Z,93.41
2017-11-20T00:38:01.611Z,93.41
2017-11-20T00:39:01.628Z,93.80
2017-11-20T00:40:01.645Z,93.89
2017-11-20T00:41:01.661Z,93.80
2017-11-20T00:42:01.678Z,94.37
2017-11-20T00:43:01.697Z,93.99
2017-11-20T00:44:01.714Z,94.65
2017-11-20T00:45:01.730Z,94.56
2017-11-20T00:46:01.754Z,94.56
2017-11-20T00:47:01.764Z,94.46
2017-11-20T00:48:01.781Z,94.46
2017-11-20T00:49:01.797Z,94.65
2017-11-20T00:50:01.814Z,94.46
2017-11-20T00:51:01.832Z,94.65
2017-11-20T00:52:01.848Z,94.46
2017-11-20T00:53:01.865Z,95.03
2017-11-20T00:54:01.883Z,94.93
2017-11-20T00:55:01.900Z,95.12
2017-11-20T00:56:01.917Z,94.74
2017-11-20T00:57:01.933Z,94.46
2017-11-20T00:58:01.949Z,94.84
2017-11-20T00:59:01.969Z,94.84
2017-11-20T01:00:01.984Z,94.84
2017-11-20T01:01:02.001Z,94.56
2017-11-20T01:02:02.017Z,94.65
2017-11-20T01:03:02.034Z,93.99
2017-11-20T01:04:02.052Z,94.08
2017-11-20T01:05:02.069Z,94.27
2017-11-20T01:06:02.085Z,94.46
2017-11-20T01:07:02.101Z,93.80
2017-11-20T01:08:02.119Z,94.27
2017-11-20T01:09:02.135Z,94.27
2017-11-20T01:10:02.151Z,93.61
2017-11-20T01:11:02.169Z,93.89
2017-11-20T01:12:02.186Z,93.80
2017-11-20T01:13:02.201Z,93.41
2017-11-20T01:14:02.220Z,93.32
2017-11-20T01:15:02.236Z,93.51
2017-11-20T01:16:02.259Z,93.56
2017-11-20T01:17:02.269Z,93.32
2017-11-20T01:18:02.286Z,92.99
2017-11-20T01:19:02.303Z,92.99
2017-11-20T01:20:02.330Z,93.27
2017-11-20T01:21:02.338Z,93.51
2017-11-20T01:22:02.356Z,93.13
2017-11-20T01:23:02.372Z,93.32
2017-11-20T01:24:02.388Z,93.23
2017-11-20T01:25:02.404Z,93.51
2017-11-20T01:26:02.422Z,93.89
2017-11-20T01:27:02.598Z,93.51
2017-11-20T01:28:02.456Z,93.70
2017-11-20T01:29:02.472Z,94.27
2017-11-20T01:30:02.489Z,93.99
2017-11-20T01:31:02.505Z,93.99
2017-11-20T01:32:02.524Z,94.65
2017-11-20T01:33:02.538Z,94.46
2017-11-20T01:34:02.560Z,94.46
2017-11-20T01:35:02.572Z,94.65
2017-11-20T01:36:02.594Z,93.99
2017-11-20T01:37:02.612Z,94.46
2017-11-20T01:38:02.623Z,93.99
2017-11-20T01:39:02.641Z,93.89
2017-11-20T01:40:02.657Z,93.89
2017-11-20T01:41:02.674Z,94.27
2017-11-20T01:42:02.692Z,93.89
2017-11-20T01:43:02.709Z,94.08
2017-11-20T01:44:02.726Z,94.18
2017-11-20T01:45:02.740Z,94.08
2017-11-20T01:46:02.763Z,94.08
2017-11-20T01:47:02.790Z,94.08
2017-11-20T01:48:02.793Z,94.18
2017-11-20T01:49:02.815Z,94.18
2017-11-20T01:50:02.826Z,94.27
2017-11-20T01:51:02.842Z,93.70
2017-11-20T01:52:02.860Z,93.70
2017-11-20T01:53:02.883Z,93.94
2017-11-20T01:54:02.894Z,93.80
2017-11-20T01:55:02.911Z,93.80
2017-11-20T01:56:02.927Z,93.94
2017-11-20T01:57:02.944Z,93.41
2017-11-20T01:58:02.961Z,93.84
2017-11-20T01:59:02.977Z,93.70
2017-11-20T02:00:02.994Z,93.32
2017-11-20T02:01:03.010Z,93.84
2017-11-20T02:02:03.029Z,93.80
2017-11-20T02:03:03.047Z,93.65
2017-11-20T02:04:03.062Z,93.61
2017-11-20T02:05:03.079Z,94.32
2017-11-20T02:06:03.095Z,93.94
2017-11-20T02:07:03.114Z,93.84
2017-11-20T02:08:03.129Z,93.94
2017-11-20T02:09:03.148Z,94.13
2017-11-20T02:10:03.163Z,94.13
2017-11-20T02:11:03.180Z,94.13
2017-11-20T02:12:03.205Z,94.13
2017-11-20T02:13:03.213Z,94.23
2017-11-20T02:14:03.250Z,93.94
2017-11-20T02:15:03.247Z,93.84
2017-11-20T02:16:03.266Z,94.03
2017-11-20T02:17:03.280Z,93.84
2017-11-20T02:18:03.297Z,94.03
2017-11-20T02:19:03.316Z,94.13
2017-11-20T02:20:03.335Z,94.03
2017-11-20T02:21:03.348Z,94.23
2017-11-20T02:22:03.367Z,94.51
2017-11-20T02:23:03.384Z,94.32
2017-11-20T02:24:03.401Z,93.94
2017-11-20T02:25:03.417Z,94.32
2017-11-20T02:26:03.433Z,94.60
2017-11-20T02:27:03.452Z,94.51
2017-11-20T02:28:03.468Z,94.51
2017-11-20T02:29:03.485Z,94.32
2017-11-20T02:30:03.527Z,94.70
2017-11-20T02:31:03.520Z,94.51
2017-11-20T02:32:03.536Z,94.60
2017-11-20T02:33:03.557Z,95.07
2017-11-20T02:34:03.571Z,94.98
2017-11-20T02:35:03.595Z,94.70
2017-11-20T02:36:03.604Z,94.70
2017-11-20T02:37:03.621Z,94.79
2017-11-20T02:38:03.643Z,94.51
2017-11-20T02:39:03.658Z,94.60
2017-11-20T02:40:03.673Z,95.12
2017-11-20T02:41:03.690Z,94.60
2017-11-20T02:42:03.708Z,94.84
2017-11-20T02:43:03.727Z,95.22
2017-11-20T02:44:03.743Z,94.60
2017-11-20T02:45:03.759Z,95.27
2017-11-20T02:46:03.777Z,95.88
2017-11-20T02:47:03.793Z,95.55
2017-11-20T02:48:03.809Z,95.88
2017-11-20T02:49:03.827Z,95.31
2017-11-20T02:50:03.845Z,95.41
2017-11-20T02:51:03.860Z,95.50
2017-11-20T02:52:03.878Z,95.60
2017-11-20T02:53:03.894Z,95.41
2017-11-20T02:54:03.914Z,95.55
2017-11-20T02:55:03.931Z,95.22
2017-11-20T02:56:03.946Z,95.88
2017-11-20T02:57:03.961Z,95.22
2017-11-20T02:58:03.980Z,95.50
2017-11-20T02:59:04.006Z,95.31
2017-11-20T03:00:04.015Z,95.31
2017-11-20T03:01:04.030Z,95.50
2017-11-20T03:02:04.046Z,95.41
2017-11-20T03:03:04.064Z,95.12
2017-11-20T03:04:04.082Z,95.12
2017-11-20T03:05:04.098Z,95.50
2017-11-20T03:06:04.114Z,95.12
2017-11-20T03:07:04.132Z,95.41
2017-11-20T03:08:04.149Z,95.12
2017-11-20T03:09:04.165Z,95.98
2017-11-20T03:10:04.188Z,95.50
2017-11-20T03:11:04.201Z,95.69
2017-11-20T03:12:04.218Z,95.88
2017-11-20T03:13:04.233Z,95.50
2017-11-20T03:14:04.249Z,95.69
2017-11-20T03:15:04.267Z,95.60
2017-11-20T03:16:04.285Z,95.31
2017-11-20T03:17:04.302Z,95.41
2017-11-20T03:18:04.318Z,95.22
2017-11-20T03:19:04.335Z,95.79
2017-11-20T03:20:04.353Z,95.69
2017-11-20T03:21:04.370Z,95.22
2017-11-20T03:22:04.385Z,95.07
2017-11-20T03:23:04.402Z,95.12
2017-11-20T03:24:04.421Z,95.69
2017-11-20T03:25:04.438Z,95.46
2017-11-20T03:26:04.454Z,94.89
2017-11-20T03:27:04.470Z,95.36
2017-11-20T03:28:04.489Z,95.36
2017-11-20T03:29:04.510Z,95.55
2017-11-20T03:30:04.524Z,95.07
2017-11-20T03:31:04.541Z,95.46
2017-11-20T03:32:04.557Z,95.36
2017-11-20T03:33:04.572Z,95.07
2017-11-20T03:34:04.590Z,95.27
2017-11-20T03:35:04.607Z,95.36
2017-11-20T03:36:04.628Z,95.36
2017-11-20T03:37:04.640Z,95.46
2017-11-20T03:38:04.662Z,94.98
2017-11-20T03:39:04.676Z,95.07
2017-11-20T03:40:04.692Z,95.27
2017-11-20T03:41:04.707Z,95.17
2017-11-20T03:42:04.725Z,94.79
2017-11-20T03:43:04.742Z,94.89
2017-11-20T03:44:04.759Z,95.27
2017-11-20T03:45:04.776Z,94.98
2017-11-20T03:46:04.801Z,95.36
2017-11-20T03:47:04.810Z,95.17
2017-11-20T03:48:04.834Z,96.12
2017-11-20T03:49:04.846Z,95.07
2017-11-20T03:50:04.865Z,95.84
2017-11-20T03:51:04.878Z,95.07
2017-11-20T03:52:04.900Z,95.12
2017-11-20T03:53:04.912Z,95.46
2017-11-20T03:54:04.929Z,95.27
2017-11-20T03:55:04.947Z,95.46
2017-11-20T03:56:04.966Z,95.17
2017-11-20T03:57:04.980Z,95.22
2017-11-20T03:58:04.998Z,95.27
2017-11-20T03:59:05.014Z,95.31
2017-11-20T04:00:05.032Z,95.69
2017-11-20T04:01:05.049Z,95.22
2017-11-20T04:02:05.066Z,95.22
2017-11-20T04:03:05.083Z,95.74
2017-11-20T04:04:05.100Z,95.69
2017-11-20T04:05:05.118Z,95.69
2017-11-20T04:06:05.137Z,95.41
2017-11-20T04:07:05.151Z,95.22
2017-11-20T04:08:05.169Z,95.22
2017-11-20T04:09:05.183Z,95.22
2017-11-20T04:10:05.202Z,95.22
2017-11-20T04:11:05.218Z,95.22
2017-11-20T04:12:05.237Z,95.22
2017-11-20T04:13:05.258Z,95.69
2017-11-20T04:14:05.268Z,95.74
2017-11-20T04:15:05.287Z,95.36
2017-11-20T04:16:05.322Z,95.22
2017-11-20T04:17:05.319Z,95.36
2017-11-20T04:18:05.337Z,95.46
2017-11-20T04:19:05.354Z,95.46
2017-11-20T04:20:05.371Z,95.69
2017-11-20T04:21:05.391Z,95.60
2017-11-20T04:22:05.404Z,95.22
2017-11-20T04:23:05.422Z,95.46
2017-11-20T04:24:05.440Z,95.60
2017-11-20T04:25:05.455Z,94.79
2017-11-20T04:26:05.522Z,95.93
2017-11-20T04:27:05.490Z,95.27
2017-11-20T04:28:05.507Z,95.12
2017-11-20T04:29:05.522Z,94.98
2017-11-20T04:30:05.541Z,95.36
2017-11-20T04:31:05.559Z,95.07
2017-11-20T04:32:05.586Z,95.07
2017-11-20T04:33:05.592Z,94.98
2017-11-20T04:34:05.608Z,95.07
2017-11-20T04:35:05.627Z,94.51
2017-11-20T04:36:05.643Z,94.60
2017-11-20T04:37:05.659Z,94.51
2017-11-20T04:38:05.675Z,94.60
2017-11-20T04:39:05.693Z,95.07
2017-11-20T04:40:05.717Z,94.89
2017-11-20T04:41:05.727Z,94.89
2017-11-20T04:42:05.744Z,94.79
2017-11-20T04:43:05.761Z,94.70
2017-11-20T04:44:05.780Z,94.70
2017-11-20T04:45:05.795Z,94.32
2017-11-20T04:46:05.812Z,94.13
2017-11-20T04:47:05.832Z,94.03
2017-11-20T04:48:05.848Z,94.32
2017-11-20T04:49:05.863Z,94.32
2017-11-20T04:50:05.880Z,93.94
2017-11-20T04:51:05.906Z,94.03
2017-11-20T04:52:05.920Z,94.03
2017-11-20T04:53:05.931Z,94.23
2017-11-20T04:54:05.948Z,93.56
2017-11-20T04:55:05.967Z,93.18
2017-11-20T04:56:05.984Z,93.84
2017-11-20T04:57:05.999Z,93.94
2017-11-20T04:58:06.017Z,93.94
2017-11-20T04:59:06.035Z,93.65
2017-11-20T05:00:06.061Z,93.56
2017-11-20T05:01:06.067Z,93.18
2017-11-20T05:02:06.086Z,93.65
2017-11-20T05:03:06.103Z,93.75
2017-11-20T05:04:06.120Z,93.56
2017-11-20T05:05:06.137Z,93.94
2017-11-20T05:06:06.153Z,93.65
2017-11-20T05:07:06.171Z,93.37
2017-11-20T05:08:06.189Z,93.18
2017-11-20T05:09:06.219Z,92.99
2017-11-20T05:10:06.222Z,92.99
2017-11-20T05:11:06.240Z,93.18
2017-11-20T05:12:06.257Z,93.08
2017-11-20T05:13:06.273Z,92.90
2017-11-20T05:14:06.298Z,93.37
2017-11-20T05:15:06.308Z,92.99
2017-11-20T05:16:06.341Z,93.08
2017-11-20T05:17:06.342Z,93.18
2017-11-20T05:18:06.359Z,92.99
2017-11-20T05:19:06.376Z,92.71
2017-11-20T05:20:06.600Z,92.61
2017-11-20T05:21:06.410Z,92.61
2017-11-20T05:22:06.427Z,93.27
2017-11-20T05:23:06.444Z,92.90
2017-11-20T05:24:06.463Z,92.90
2017-11-20T05:25:06.482Z,93.08
2017-11-20T05:26:06.498Z,92.99
2017-11-20T05:27:06.513Z,93.27
2017-11-20T05:28:06.531Z,92.99
2017-11-20T05:29:06.548Z,93.46
2017-11-20T05:30:06.565Z,93.37
2017-11-20T05:31:06.583Z,93.84
2017-11-20T05:32:06.600Z,93.18
2017-11-20T05:33:07.367Z,93.46
2017-11-20T05:34:06.632Z,93.18
2017-11-20T05:35:06.652Z,93.46
2017-11-20T05:36:06.667Z,93.75
2017-11-20T05:37:06.683Z,93.84
2017-11-20T05:38:06.701Z,93.56
2017-11-20T05:39:06.719Z,94.13
2017-11-20T05:40:06.736Z,94.03
2017-11-20T05:41:06.753Z,93.84
2017-11-20T05:42:06.770Z,93.84
2017-11-20T05:43:06.787Z,93.84
2017-11-20T05:44:06.804Z,93.46
2017-11-20T05:45:06.822Z,93.46
2017-11-20T05:46:06.839Z,93.46
2017-11-20T05:47:06.857Z,93.46
2017-11-20T05:48:06.873Z,93.56
2017-11-20T05:49:06.898Z,93.46
2017-11-20T05:50:06.907Z,93.75
2017-11-20T05:51:06.924Z,93.56
2017-11-20T05:52:06.945Z,93.65
2017-11-20T05:53:06.960Z,93.84
2017-11-20T05:54:06.978Z,93.08
2017-11-20T05:55:06.996Z,93.27
2017-11-20T05:56:07.011Z,93.46
2017-11-20T05:57:07.028Z,93.08
2017-11-20T05:58:07.045Z,93.37
2017-11-20T05:59:07.061Z,93.18
2017-11-20T06:00:07.079Z,93.27
2017-11-20T06:01:07.096Z,93.46
2017-11-20T06:02:07.113Z,93.46
2017-11-20T06:03:07.131Z,92.80
2017-11-20T06:04:07.149Z,92.80
2017-11-20T06:05:07.164Z,92.04
2017-11-20T06:06:07.183Z,93.18
2017-11-20T06:07:07.199Z,92.90
2017-11-20T06:08:07.216Z,92.61
2017-11-20T06:09:07.234Z,92.99
2017-11-20T06:10:07.250Z,93.08
2017-11-20T06:11:07.272Z,93.56
2017-11-20T06:12:07.285Z,92.80
2017-11-20T06:13:07.302Z,92.71
2017-11-20T06:14:07.319Z,93.08
2017-11-20T06:15:07.337Z,92.90
2017-11-20T06:16:07.355Z,92.42
2017-11-20T06:17:07.371Z,92.52
2017-11-20T06:18:07.388Z,93.08
2017-11-20T06:19:07.405Z,92.33
2017-11-20T06:20:07.422Z,92.99
2017-11-20T06:21:07.438Z,92.23
2017-11-20T06:22:07.456Z,92.23
2017-11-20T06:23:07.473Z,92.42
2017-11-20T06:24:07.491Z,92.99
2017-11-20T06:25:07.512Z,92.90
2017-11-20T06:26:07.524Z,92.90
2017-11-20T06:27:07.541Z,92.99
2017-11-20T06:28:07.560Z,92.61
2017-11-20T06:29:07.575Z,92.90
2017-11-20T06:30:07.592Z,92.90
2017-11-20T06:31:07.611Z,92.71
2017-11-20T06:32:07.629Z,92.23
2017-11-20T06:33:07.642Z,92.33
2017-11-20T06:34:07.661Z,92.33
2017-11-20T06:35:07.678Z,91.66
2017-11-20T06:36:07.695Z,91.94
2017-11-20T06:37:07.713Z,92.04
2017-11-20T06:38:07.730Z,91.75
2017-11-20T06:39:07.746Z,92.04
2017-11-20T06:40:07.763Z,91.85
2017-11-20T06:41:07.780Z,92.23
2017-11-20T06:42:07.796Z,91.85
2017-11-20T06:43:07.814Z,91.28
2017-11-20T06:44:07.832Z,91.85
2017-11-20T06:45:07.848Z,92.23
2017-11-20T06:46:07.866Z,91.38
2017-11-20T06:47:07.882Z,92.14
2017-11-20T06:48:07.899Z,92.23
2017-11-20T06:49:07.918Z,91.38
2017-11-20T06:50:07.941Z,91.28
2017-11-20T06:51:07.951Z,91.75
2017-11-20T06:52:07.970Z,91.66
2017-11-20T06:53:07.990Z,91.66
2017-11-20T06:54:08.001Z,91.28
2017-11-20T06:55:08.017Z,91.85
2017-11-20T06:56:08.041Z,91.94
2017-11-20T06:57:08.060Z,92.04
2017-11-20T06:58:08.069Z,91.56
2017-11-20T06:59:08.086Z,91.28
2017-11-20T07:00:08.103Z,90.81
2017-11-20T07:01:08.119Z,91.47
2017-11-20T07:02:08.137Z,91.66
2017-11-20T07:03:08.155Z,90.90
2017-11-20T07:04:08.172Z,91.75
2017-11-20T07:05:08.187Z,91.19
2017-11-20T07:06:08.205Z,91.66
2017-11-20T07:07:08.222Z,91.75
2017-11-20T07:08:08.239Z,91.19
2017-11-20T07:09:08.256Z,91.38
2017-11-20T07:10:08.272Z,90.71
2017-11-20T07:11:08.290Z,91.28
2017-11-20T07:12:08.307Z,91.66
2017-11-20T07:13:08.330Z,91.47
2017-11-20T07:14:08.343Z,90.90
2017-11-20T07:15:08.358Z,91.09
2017-11-20T07:16:08.375Z,91.00
2017-11-20T07:17:08.391Z,90.90
2017-11-20T07:18:08.408Z,90.81
2017-11-20T07:19:08.427Z,91.28
2017-11-20T07:20:08.444Z,90.52
2017-11-20T07:21:08.459Z,90.90
2017-11-20T07:22:08.476Z,90.71
2017-11-20T07:23:08.493Z,91.38
2017-11-20T07:24:08.512Z,90.90
2017-11-20T07:25:08.533Z,91.00
2017-11-20T07:26:08.544Z,91.00
2017-11-20T07:27:08.563Z,91.00
2017-11-20T07:28:08.579Z,90.43
2017-11-20T07:29:08.596Z,90.71
2017-11-20T07:30:08.618Z,90.90
2017-11-20T07:31:08.631Z,90.90
2017-11-20T07:32:08.647Z,90.71
2017-11-20T07:33:08.663Z,91.00
2017-11-20T07:34:08.687Z,91.85
2017-11-20T07:35:08.698Z,91.47
2017-11-20T07:36:08.716Z,90.62
2017-11-20T07:37:08.732Z,91.56
2017-11-20T07:38:08.748Z,91.47
2017-11-20T07:39:08.766Z,91.38
2017-11-20T07:40:08.784Z,91.94
2017-11-20T07:41:08.801Z,91.94
2017-11-20T07:42:08.817Z,92.33
2017-11-20T07:43:08.834Z,92.42
2017-11-20T07:44:08.851Z,91.94
2017-11-20T07:45:08.868Z,92.99
2017-11-20T07:46:08.886Z,92.85
2017-11-20T07:47:08.902Z,92.90
2017-11-20T07:48:08.920Z,92.85
2017-11-20T07:49:08.936Z,93.37
2017-11-20T07:50:08.953Z,93.84
2017-11-20T07:51:08.972Z,93.65
2017-11-20T07:52:08.988Z,93.51
2017-11-20T07:53:09.003Z,94.32
2017-11-20T07:54:09.026Z,94.51
2017-11-20T07:55:09.039Z,94.13
2017-11-20T07:56:09.056Z,93.75
2017-11-20T07:57:09.083Z,94.23
2017-11-20T07:58:09.089Z,93.94
2017-11-20T07:59:09.107Z,94.03
2017-11-20T08:00:09.141Z,94.37
2017-11-20T08:01:09.142Z,94.84
2017-11-20T08:02:09.157Z,94.84
2017-11-20T08:03:09.175Z,94.70
2017-11-20T08:04:09.194Z,94.98
2017-11-20T08:05:09.209Z,94.65
2017-11-20T08:06:09.226Z,94.74
2017-11-20T08:07:09.243Z,95.03
2017-11-20T08:08:09.261Z,94.46
2017-11-20T08:09:09.278Z,94.56
2017-11-20T08:10:09.294Z,94.84
2017-11-20T08:11:09.311Z,94.84
2017-11-20T08:12:09.329Z,94.56
2017-11-20T08:13:09.345Z,94.93
2017-11-20T08:14:09.366Z,94.93
2017-11-20T08:15:09.381Z,95.12
2017-11-20T08:16:09.397Z,94.84
2017-11-20T08:17:09.413Z,94.65
2017-11-20T08:18:09.431Z,94.74
2017-11-20T08:19:09.448Z,95.22
2017-11-20T08:20:09.467Z,94.65
2017-11-20T08:21:09.481Z,95.22
2017-11-20T08:22:09.499Z,95.31
2017-11-20T08:23:09.518Z,95.12
2017-11-20T08:24:09.532Z,93.99
2017-11-20T08:25:09.550Z,94.84
2017-11-20T08:26:09.566Z,95.03
2017-11-20T08:27:09.582Z,95.22
2017-11-20T08:28:09.600Z,94.93
2017-11-20T08:29:09.617Z,95.03
2017-11-20T08:30:09.634Z,94.46
2017-11-20T08:31:09.651Z,95.22
2017-11-20T08:32:09.667Z,94.93
2017-11-20T08:33:09.684Z,94.74
2017-11-20T08:34:09.702Z,94.74
2017-11-20T08:35:09.719Z,94.46
2017-11-20T08:36:09.736Z,94.37
2017-11-20T08:37:09.753Z,95.03
2017-11-20T08:38:09.769Z,94.93
2017-11-20T08:39:09.789Z,94.65
2017-11-20T08:40:09.804Z,95.03
2017-11-20T08:41:09.820Z,95.31
2017-11-20T08:42:09.838Z,94.65
2017-11-20T08:43:09.855Z,94.93
2017-11-20T08:44:09.872Z,94.56
2017-11-20T08:45:09.888Z,95.31
2017-11-20T08:46:09.906Z,95.41
2017-11-20T08:47:09.922Z,94.93
2017-11-20T08:48:09.939Z,95.88
2017-11-20T08:49:10.057Z,95.41
2017-11-20T08:50:09.975Z,95.03
2017-11-20T08:51:09.999Z,94.84
2017-11-20T08:52:10.009Z,95.22
2017-11-20T08:53:10.029Z,94.37
2017-11-20T08:54:10.042Z,93.80
2017-11-20T08:55:10.059Z,94.08
2017-11-20T08:56:10.077Z,94.65
2017-11-20T08:57:10.094Z,95.03
2017-11-20T08:58:10.113Z,95.31
2017-11-20T08:59:10.127Z,95.50
2017-11-20T09:00:10.144Z,94.74
2017-11-20T09:01:10.160Z,94.74
2017-11-20T09:02:10.182Z,94.18
2017-11-20T09:03:10.195Z,94.84
2017-11-20T09:04:10.212Z,95.12
2017-11-20T09:05:10.228Z,93.99
2017-11-20T09:06:10.247Z,93.89
2017-11-20T09:07:10.262Z,94.74
2017-11-20T09:08:10.280Z,94.46
2017-11-20T09:09:10.295Z,95.22
2017-11-20T09:10:10.315Z,95.12
2017-11-20T09:11:10.339Z,95.22
2017-11-20T09:12:10.347Z,94.74
2017-11-20T09:13:10.364Z,94.18
2017-11-20T09:14:10.380Z,94.18
2017-11-20T09:15:10.398Z,93.80
2017-11-20T09:16:10.414Z,94.08
2017-11-20T09:17:10.432Z,94.74
2017-11-20T09:18:10.449Z,94.74
2017-11-20T09:19:10.466Z,94.74
2017-11-20T09:20:10.483Z,93.99
2017-11-20T09:21:10.498Z,93.70
2017-11-20T09:22:10.519Z,94.27
2017-11-20T09:23:10.534Z,93.99
2017-11-20T09:24:10.551Z,94.84
2017-11-20T09:25:10.567Z,94.27
2017-11-20T09:26:10.584Z,93.99
2017-11-20T09:27:10.601Z,94.65
2017-11-20T09:28:10.618Z,94.74
2017-11-20T09:29:10.636Z,94.93
2017-11-20T09:30:10.670Z,94.37
2017-11-20T09:31:10.669Z,94.74
2017-11-20T09:32:10.685Z,95.22
2017-11-20T09:33:10.703Z,94.37
2017-11-20T09:34:10.719Z,94.84
2017-11-20T09:35:10.738Z,94.56
2017-11-20T09:36:10.755Z,94.84
2017-11-20T09:37:10.770Z,95.12
2017-11-20T09:38:10.789Z,95.50
2017-11-20T09:39:10.805Z,94.84
2017-11-20T09:40:10.825Z,94.74
2017-11-20T09:41:10.838Z,94.74
2017-11-20T09:42:10.864Z,95.41
2017-11-20T09:43:10.874Z,95.41
2017-11-20T09:44:10.890Z,95.22
2017-11-20T09:45:10.908Z,95.88
2017-11-20T09:46:11.069Z,95.69
2017-11-20T09:47:10.943Z,95.41
2017-11-20T09:48:10.979Z,95.03
2017-11-20T09:49:10.974Z,95.31
2017-11-20T09:50:10.990Z,95.03
2017-11-20T09:51:11.008Z,94.65
2017-11-20T09:52:11.024Z,95.22
2017-11-20T09:53:11.041Z,95.22
2017-11-20T09:54:11.059Z,95.31
2017-11-20T09:55:11.076Z,95.60
2017-11-20T09:56:11.092Z,95.41
2017-11-20T09:57:11.108Z,95.31
2017-11-20T09:58:11.125Z,95.60
2017-11-20T09:59:11.160Z,95.41
2017-11-20T10:00:11.211Z,95.69
2017-11-20T10:01:11.176Z,95.03
2017-11-20T10:02:11.193Z,95.22
2017-11-20T10:03:11.210Z,95.50
2017-11-20T10:04:11.226Z,95.03
2017-11-20T10:05:11.243Z,95.03
2017-11-20T10:06:11.261Z,95.31
2017-11-20T10:07:11.276Z,95.41
2017-11-20T10:08:11.293Z,95.31
2017-11-20T10:09:11.316Z,95.50
2017-11-20T10:10:11.326Z,95.03
2017-11-20T10:11:11.545Z,95.12
2017-11-20T10:12:11.361Z,94.93
2017-11-20T10:13:11.378Z,95.03
2017-11-20T10:14:11.394Z,95.22
2017-11-20T10:15:11.411Z,95.41
2017-11-20T10:16:11.429Z,95.03
2017-11-20T10:17:11.445Z,95.69
2017-11-20T10:18:11.461Z,95.98
2017-11-20T10:19:11.478Z,94.98
2017-11-20T10:20:11.495Z,95.79
2017-11-20T10:21:11.511Z,95.69
2017-11-20T10:22:11.530Z,96.26
2017-11-20T10:23:11.546Z,95.22
2017-11-20T10:24:11.562Z,95.31
2017-11-20T10:25:11.579Z,95.50
2017-11-20T10:26:11.596Z,95.60
2017-11-20T10:27:11.613Z,95.31
2017-11-20T10:28:11.629Z,95.60
2017-11-20T10:29:11.646Z,95.41
2017-11-20T10:30:11.666Z,95.41
2017-11-20T10:31:11.679Z,95.79
2017-11-20T10:32:11.696Z,95.88
2017-11-20T10:33:11.712Z,96.26
2017-11-20T10:34:11.730Z,95.22
2017-11-20T10:35:11.747Z,94.84
2017-11-20T10:36:11.764Z,95.50
2017-11-20T10:37:11.780Z,95.79
2017-11-20T10:38:11.797Z,95.79
2017-11-20T10:39:11.813Z,96.92
2017-11-20T10:40:11.838Z,96.17
2017-11-20T10:41:11.847Z,95.98
2017-11-20T10:42:11.871Z,96.73
2017-11-20T10:43:11.881Z,96.26
2017-11-20T10:44:11.899Z,95.98
2017-11-20T10:45:11.913Z,96.73
2017-11-20T10:46:11.937Z,97.02
2017-11-20T10:47:11.956Z,96.17
2017-11-20T10:48:11.965Z,96.08
2017-11-20T10:49:11.982Z,96.78
2017-11-20T10:50:11.998Z,96.92
2017-11-20T10:51:12.018Z,96.45
2017-11-20T10:52:12.032Z,96.36
2017-11-20T10:53:12.049Z,96.73
2017-11-20T10:54:12.067Z,96.26
2017-11-20T10:55:12.082Z,96.92
2017-11-20T10:56:12.101Z,96.26
2017-11-20T10:57:12.115Z,96.08
2017-11-20T10:58:12.134Z,96.17
2017-11-20T10:59:12.150Z,96.45
2017-11-20T11:00:12.170Z,96.45
2017-11-20T11:01:12.181Z,96.45
2017-11-20T11:02:12.199Z,96.26
2017-11-20T11:03:12.217Z,96.36
2017-11-20T11:04:12.232Z,96.17
2017-11-20T11:05:12.249Z,96.26
2017-11-20T11:06:12.270Z,96.17
2017-11-20T11:07:12.283Z,97.02
2017-11-20T11:08:12.300Z,95.79
2017-11-20T11:09:12.319Z,95.88
2017-11-20T11:10:12.333Z,96.03
2017-11-20T11:11:12.350Z,96.73
2017-11-20T11:12:12.368Z,97.12
2017-11-20T11:13:12.383Z,96.26
2017-11-20T11:14:12.399Z,96.83
2017-11-20T11:15:12.417Z,96.55
2017-11-20T11:16:12.435Z,96.83
2017-11-20T11:17:12.450Z,95.60
2017-11-20T11:18:12.468Z,95.22
2017-11-20T11:19:12.484Z,95.88
2017-11-20T11:20:12.501Z,95.79
2017-11-20T11:21:12.518Z,95.22
2017-11-20T11:22:12.535Z,94.93
2017-11-20T11:23:12.552Z,94.65
2017-11-20T11:24:12.579Z,95.31
2017-11-20T11:25:12.585Z,95.60
2017-11-20T11:26:12.601Z,95.31
2017-11-20T11:27:12.618Z,95.03
2017-11-20T11:28:12.636Z,95.41
2017-11-20T11:29:12.652Z,95.50
2017-11-20T11:30:12.669Z,95.22
2017-11-20T11:31:12.692Z,95.69
2017-11-20T11:32:12.702Z,95.88
2017-11-20T11:33:12.718Z,96.26
2017-11-20T11:34:12.738Z,96.22
2017-11-20T11:35:12.753Z,95.55
2017-11-20T11:36:16.469Z,96.03
2017-11-20T11:37:12.785Z,97.26
2017-11-20T11:38:12.803Z,96.59
2017-11-20T11:39:12.819Z,96.97
2017-11-20T11:40:12.836Z,97.45
2017-11-20T11:41:13.707Z,97.16
2017-11-20T11:42:12.869Z,97.21
2017-11-20T11:43:12.886Z,97.69
2017-11-20T11:44:12.903Z,97.78
2017-11-20T11:45:12.920Z,97.59
2017-11-20T11:46:12.936Z,97.50
2017-11-20T11:47:12.953Z,97.83
2017-11-20T11:48:12.970Z,97.50
2017-11-20T11:49:12.987Z,97.50
2017-11-20T11:50:13.003Z,97.26
2017-11-20T11:51:13.020Z,96.88
2017-11-20T11:52:13.037Z,96.97
2017-11-20T11:53:13.052Z,97.45
2017-11-20T11:54:13.069Z,96.97
2017-11-20T11:55:13.091Z,97.02
2017-11-20T11:56:13.103Z,96.64
2017-11-20T11:57:13.118Z,96.26
2017-11-20T11:58:13.136Z,97.02
2017-11-20T11:59:13.154Z,96.73
2017-11-20T12:00:13.171Z,96.45
2017-11-20T12:01:13.186Z,96.55
2017-11-20T12:02:13.202Z,97.21
2017-11-20T12:03:13.221Z,95.98
2017-11-20T12:04:13.237Z,96.45
2017-11-20T12:05:13.254Z,96.73
2017-11-20T12:06:13.269Z,96.26
2017-11-20T12:07:13.286Z,96.97
2017-11-20T12:08:13.304Z,96.73
2017-11-20T12:09:13.356Z,96.50
2017-11-20T12:10:13.336Z,96.17
2017-11-20T12:11:13.355Z,96.55
2017-11-20T12:12:13.371Z,96.45
2017-11-20T12:13:13.386Z,96.03
2017-11-20T12:14:13.402Z,97.12
2017-11-20T12:15:13.419Z,96.26
2017-11-20T12:16:13.437Z,96.08
2017-11-20T12:17:13.452Z,95.50
2017-11-20T12:18:13.476Z,95.79
2017-11-20T12:19:13.487Z,95.31
2017-11-20T12:20:13.503Z,95.60
2017-11-20T12:21:13.522Z,95.69
2017-11-20T12:22:13.537Z,95.79
2017-11-20T12:23:13.553Z,95.41
2017-11-20T12:24:13.569Z,95.69
2017-11-20T12:25:13.585Z,96.55
2017-11-20T12:26:13.604Z,96.26
2017-11-20T12:27:13.620Z,95.88
2017-11-20T12:28:13.637Z,96.26
2017-11-20T12:29:13.653Z,95.79
2017-11-20T12:30:13.669Z,95.69
2017-11-20T12:31:13.686Z,96.12
2017-11-20T12:32:13.704Z,96.36
2017-11-20T12:33:13.720Z,96.26
2017-11-20T12:34:13.737Z,95.88
2017-11-20T12:35:13.761Z,95.79
2017-11-20T12:36:13.771Z,96.22
2017-11-20T12:37:13.787Z,95.98
2017-11-20T12:38:13.840Z,96.12
2017-11-20T12:39:13.820Z,97.07
2017-11-20T12:40:13.837Z,96.97
2017-11-20T12:41:13.852Z,96.17
2017-11-20T12:42:13.871Z,96.03
2017-11-20T12:43:13.886Z,96.31
2017-11-20T12:44:13.903Z,95.36
2017-11-20T12:45:13.919Z,95.65
2017-11-20T12:46:13.936Z,95.84
2017-11-20T12:47:13.954Z,96.41
2017-11-20T12:48:13.969Z,96.88
2017-11-20T12:49:13.988Z,96.78
2017-11-20T12:50:14.011Z,97.31
2017-11-20T12:51:14.020Z,97.31
2017-11-20T12:52:14.036Z,97.02